Data for 08/03/2008

Time Sea-Level Adjusted Pressure Absolute Pressure Temperature Relative Humidity Dew Point   
(mb) (inHg) (mb) (inHg) (C) (F) (%) (C) (F)
00:05 1019 30.09 848 25.04 15.3 59.5 65 8.8 47.8
00:10 1019 30.09 848 25.04 14.9 58.9 66 8.7 47.6
00:15 1019 30.09 848 25.04 14.8 58.7 66 8.6 47.4
00:20 1019 30.09 848 25.04 14.7 58.5 66 8.5 47.2
00:25 1019 30.09 848 25.04 14.6 58.2 66 8.4 47.1
00:30 1019 30.09 848 25.04 14.5 58.2 66 8.3 46.9
00:35 1019 30.09 848 25.04 14.5 58.1 67 8.4 47.2
00:40 1019 30.09 848 25.04 14.4 57.8 68 8.5 47.4
00:45 1019 30.09 848 25.04 14.3 57.7 64 7.8 46
00:50 1019 30.09 848 25.04 14.4 57.9 67 8.5 47.3
00:55 1019 30.09 848 25.04 14.1 57.3 70 8.7 47.7
01:00 1019 30.09 848 25.04 13.8 56.8 71 8.6 47.5
01:05 1019 30.09 848 25.04 13.9 57.1 69 8.4 47.2
01:10 1019 30.09 848 25.04 14 57.2 70 8.7 47.6
01:15 1019 30.09 848 25.04 14 57.2 69 8.5 47.2
01:20 1019 30.09 848 25.04 14.2 57.5 69 8.7 47.7
01:25 1019 30.09 848 25.04 14 57.3 69 8.5 47.3
01:30 1019 30.09 848 25.04 13.8 56.8 72 8.9 48
01:35 1019 30.09 848 25.04 13.2 55.7 74 8.6 47.5
01:40 1019 30.09 848 25.04 13.1 55.5 74 8.6 47.4
01:45 1019 30.09 848 25.04 13 55.5 74 8.5 47.2
01:50 1019 30.09 848 25.04 12.7 54.9 75 8.3 47
01:55 1019 30.09 848 25.04 12.5 54.5 75 8.2 46.8
02:00 1019 30.09 848 25.04 12.7 54.8 74 8.2 46.7
02:05 1019 30.09 848 25.04 12.6 54.8 74 8.2 46.7
02:10 1019 30.09 848 25.04 12.6 54.6 75 8.2 46.8
02:15 1019 30.09 848 25.04 12.4 54.3 74 7.9 46.3
02:20 1019 30.09 848 25.04 12.4 54.3 74 7.9 46.3
02:25 1019 30.09 848 25.04 12.2 53.9 75 8 46.3
02:30 1019 30.09 848 25.04 11.8 53.3 75 7.7 45.8
02:35 1019 30.09 848 25.04 11.5 52.7 76 7.5 45.6
02:40 1019 30.09 848 25.04 11.8 53.2 74 7.4 45.3
02:45 1018 30.06 848 25.04 11.9 53.3 75 7.5 45.5
02:50 1018 30.06 848 25.04 11.5 52.7 76 7.5 45.5
02:55 1018 30.06 848 25.04 11.3 52.3 75 7 44.6
03:00 1018 30.06 848 25.04 11.3 52.3 75 7.1 44.8
03:05 1018 30.06 848 25.04 11.2 52.1 75 7 44.6
03:10 1018 30.06 848 25.04 11.3 52.3 74 6.8 44.3
03:15 1018 30.06 848 25.04 11.4 52.5 73 6.8 44.3
03:20 1018 30.06 848 25.04 11.4 52.5 73 6.8 44.2
03:25 1018 30.06 848 25.04 11.4 52.4 72 6.5 43.7
03:30 1018 30.06 847 25.01 11.5 52.7 71 6.5 43.7
03:35 1018 30.06 847 25.01 11.4 52.5 72 6.5 43.7
03:40 1018 30.06 847 25.01 11.2 52.1 72 6.2 43.2
03:45 1018 30.06 847 25.01 11.2 52.1 72 6.4 43.5
03:50 1018 30.06 847 25.01 11 51.8 73 6.5 43.7
03:55 1018 30.06 847 25.01 10.9 51.6 74 6.5 43.6
04:00 1018 30.06 847 25.01 11 51.8 74 6.5 43.7
04:05 1018 30.06 847 25.01 11 51.9 74 6.5 43.7
04:10 1018 30.06 847 25.01 10.9 51.6 74 6.5 43.7
04:15 1018 30.06 847 25.01 10.9 51.6 74 6.5 43.7
04:20 1018 30.06 847 25.01 10.8 51.4 74 6.4 43.6
04:25 1018 30.06 847 25.01 10.7 51.2 75 6.5 43.7
04:30 1018 30.06 847 25.01 10.6 51.1 75 6.3 43.4
04:35 1018 30.06 847 25.01 10.5 50.9 75 6.2 43.2
04:40 1018 30.06 847 25.01 10.6 51.1 73 6.1 42.9
04:45 1018 30.06 847 25.01 10.7 51.2 73 6.1 43
04:50 1018 30.06 847 25.01 10.7 51.2 74 6.2 43.2
04:55 1018 30.06 847 25.01 10.8 51.5 73 6.3 43.3
05:00 1018 30.06 847 25.01 11.1 51.9 73 6.4 43.5
05:05 1018 30.06 847 25.01 11.1 52 72 6.4 43.5
05:10 1018 30.06 847 25.01 11.1 51.9 73 6.4 43.5
05:15 1018 30.06 847 25.01 10.8 51.5 74 6.3 43.4
05:20 1018 30.06 847 25.01 10.7 51.2 74 6.3 43.3
05:25 1018 30.06 847 25.01 10.7 51.3 73 6.2 43.1
05:30 1018 30.06 847 25.01 10.9 51.6 73 6.3 43.4
05:35 1018 30.06 847 25.01 10.9 51.7 72 6.2 43.1
05:40 1018 30.06 847 25.01 10.9 51.6 72 6 42.7
05:45 1018 30.06 847 25.01 10.8 51.5 71 5.8 42.4
05:50 1018 30.06 847 25.01 10.8 51.5 71 5.8 42.4
05:55 1018 30.06 847 25.01 10.9 51.7 70 5.8 42.4
06:00 1018 30.06 847 25.01 11.1 52 70 5.9 42.7
06:05 1018 30.06 847 25.01 11.2 52.1 70 5.9 42.6
06:10 1018 30.06 847 25.01 11.1 51.9 71 6 42.7
06:15 1018 30.06 848 25.04 10.8 51.4 69 5.4 41.6
06:20 1018 30.06 848 25.04 10.5 50.9 69 5.1 41.2
06:25 1018 30.06 848 25.04 10.8 51.5 68 5.1 41.2
06:30 1018 30.06 848 25.04 11 51.7 66 5 40.9
06:35 1018 30.06 848 25.04 11.3 52.3 65 4.9 40.9
06:40 1019 30.09 848 25.04 11.4 52.5 65 5 41
06:45 1019 30.09 848 25.04 11.5 52.6 65 5.1 41.2
06:50 1019 30.09 848 25.04 11.2 52.2 66 5.2 41.3
06:55 1019 30.09 848 25.04 10.9 51.7 67 5 41.1
07:00 1019 30.09 848 25.04 11.1 51.9 66 4.9 40.9
07:05 1019 30.09 848 25.04 11.5 52.7 64 5 40.9
07:10 1019 30.09 848 25.04 11.6 52.9 64 5.1 41.1
07:15 1019 30.09 848 25.04 11.6 53 64 5.2 41.3
07:20 1019 30.09 848 25.04 11.7 53.1 63 5 41
07:25 1019 30.09 848 25.04 11.8 53.2 64 5.3 41.6
07:30 1019 30.09 848 25.04 11.9 53.3 62 4.8 40.6
07:35 1019 30.09 848 25.04 12.3 54.1 60 4.9 40.8
07:40 1019 30.09 848 25.04 12.8 55.1 59 5.1 41.2
07:45 1019 30.09 848 25.04 13.3 56 56 4.9 40.9
07:50 1019 30.09 848 25.04 13.7 56.7 57 5.5 41.9
07:55 1019 30.09 848 25.04 13.8 56.9 56 5.3 41.6
08:00 1019 30.09 848 25.04 14.2 57.5 55 5.3 41.6
08:05 1019 30.09 848 25.04 13.9 57 57 5.6 42.1
08:10 1019 30.09 848 25.04 14.1 57.5 59 6.2 43.2
08:15 1019 30.09 848 25.04 14.4 57.9 57 6 42.9
08:20 1019 30.09 848 25.04 14.5 58.1 56 5.9 42.5
08:25 1018 30.06 848 25.04 15 58.9 55 6.2 43.2
08:30 1019 30.09 848 25.04 15.6 60.1 52 6 42.8
08:35 1018 30.06 848 25.04 16.1 61 53 6.7 44.1
08:40 1018 30.06 848 25.04 16.1 61 52 6.3 43.3
08:45 1018 30.06 848 25.04 16.6 61.9 51 6.5 43.7
08:50 1018 30.06 848 25.04 17.2 62.9 49 6.5 43.6
08:55 1018 30.06 848 25.04 17.7 63.9 47 6.5 43.8
09:00 1018 30.06 848 25.04 18.1 64.5 49 7.3 45.2
09:05 1018 30.06 848 25.04 17.6 63.6 51 7.6 45.6
09:10 1018 30.06 848 25.04 17.1 62.7 54 7.8 46.1
09:15 1018 30.06 847 25.01 16.7 62.1 53 7.2 44.9
09:20 1018 30.06 847 25.01 17.8 64 52 7.8 46.1
09:25 1018 30.06 847 25.01 17.1 62.7 54 7.8 46.1
09:30 1018 30.06 847 25.01 16.3 61.3 56 7.5 45.6
09:35 1018 30.06 847 25.01 17.6 63.6 50 7.2 44.9
09:40 1018 30.06 847 25.01 18.2 64.8 52 8.2 46.7
09:45 1018 30.06 847 25.01 17.6 63.6 51 7.5 45.6
09:50 1018 30.06 847 25.01 18.1 64.5 49 7.3 45.1
09:55 1018 30.06 847 25.01 18.5 65.3 50 8 46.4
10:00 1018 30.06 847 25.01 18.4 65.1 53 8.7 47.7
10:05 1018 30.06 847 25.01 17.4 63.4 52 7.7 45.8
10:10 1018 30.06 847 25.01 17.9 64.2 51 7.8 46
10:15 1018 30.06 847 25.01 18.8 65.8 50 8.1 46.6
10:20 1018 30.06 847 25.01 19.1 66.4 49 8.2 46.8
10:25 1018 30.06 847 25.01 19.4 67 45 7.4 45.2
10:30 1018 30.06 847 25.01 18.8 65.8 49 8.1 46.5
10:35 1018 30.06 847 25.01 18 64.3 49 7.3 45.1
10:40 1018 30.06 847 25.01 17.7 63.9 51 7.6 45.7
10:45 1018 30.06 847 25.01 18.3 64.9 49 7.5 45.6
10:50 1018 30.06 847 25.01 19.1 66.4 47 7.6 45.7
10:55 1018 30.06 847 25.01 19.7 67.4 46 8 46.4
11:00 1018 30.06 847 25.01 19.5 67.1 47 7.9 46.3
11:05 1018 30.06 847 25.01 20.4 68.6 44 7.8 46.1
11:10 1018 30.06 847 25.01 20.8 69.5 43 7.9 46.3
11:15 1018 30.06 847 25.01 20.6 69.2 44 8.2 46.7
11:20 1018 30.06 847 25.01 20.7 69.2 43 7.8 46.1
11:25 1018 30.06 847 25.01 20.8 69.4 42 7.8 46
11:30 1018 30.06 847 25.01 20.6 69.1 42 7.4 45.3
11:35 1018 30.06 847 25.01 20.5 69 43 7.6 45.8
11:40 1018 30.06 847 25.01 21.2 70.2 40 7.2 45
11:45 1017 30.03 847 25.01 22.1 71.7 39 7.7 45.8
11:50 1017 30.03 847 25.01 22.4 72.3 39 7.9 46.3
11:55 1017 30.03 847 25.01 22.6 72.6 36 6.8 44.2
12:00 1017 30.03 847 25.01 23 73.4 36 7.5 45.5
12:05 1017 30.03 846 24.98 22.5 72.5 39 8.1 46.6
12:10 1017 30.03 846 24.98 22 71.5 39 7.7 45.8
12:15 1017 30.03 846 24.98 22.3 72.1 35 6.1 43
12:20 1017 30.03 846 24.98 22.6 72.8 37 7.5 45.4
12:25 1017 30.03 846 24.98 23.3 73.9 34 6.7 44.1
12:30 1017 30.03 846 24.98 23.6 74.5 34 6.9 44.4
12:35 1017 30.03 846 24.98 23.8 74.8 33 6.9 44.4
12:40 1017 30.03 846 24.98 23 73.3 34 6.7 44
12:45 1017 30.03 846 24.98 23.4 74.1 33 6.6 43.8
12:50 1017 30.03 846 24.98 24.7 76.5 32 7 44.5
12:55 1017 30.03 846 24.98 25 76.9 29 6.2 43.1
13:00 1017 30.03 846 24.98 25.4 77.8 28 6 42.9
13:05 1017 30.03 846 24.98 25.5 77.8 29 6.2 43.1
13:10 1016 30 846 24.98 25.2 77.3 30 6.4 43.6
13:15 1016 30 846 24.98 25.2 77.3 29 6 42.9
13:20 1016 30 846 24.98 25.1 77.1 28 5.3 41.5
13:25 1016 30 845 24.95 25.7 78.2 26 5.2 41.3
13:30 1016 30 845 24.95 26.2 79.2 24 4.4 39.9
13:35 1016 30 845 24.95 26 78.7 25 4.6 40.3
13:40 1016 30 845 24.95 26.2 79.1 24 4.4 39.8
13:45 1016 30 845 24.95 26.2 79.1 26 5.5 41.8
13:50 1016 30 845 24.95 26 78.8 25 4.6 40.3
13:55 1016 30 845 24.95 26.7 80 23 4 39.3
14:00 1016 30 845 24.95 26.8 80.3 24 4.6 40.3
14:05 1016 30 845 24.95 26.6 79.8 24 4.8 40.6
14:10 1016 30 845 24.95 26.9 80.5 23 4.4 39.9
14:15 1016 30 845 24.95 26.7 80.1 24 4.7 40.5
14:20 1016 30 845 24.95 26.6 79.8 24 4.9 40.8
14:25 1016 30 845 24.95 26.8 80.3 23 4.3 39.7
14:30 1016 30 845 24.95 26.8 80.2 24 4.6 40.2
14:35 1016 30 845 24.95 27.3 81.2 23 4.4 39.9
14:40 1015 29.97 845 24.95 27.5 81.5 22 4.5 40.1
14:45 1015 29.97 845 24.95 27.1 80.7 23 4.4 39.8
14:50 1015 29.97 845 24.95 27.3 81.2 22 4.3 39.8
14:55 1015 29.97 845 24.95 27.2 81 23 4.5 40.2
15:00 1015 29.97 845 24.95 27.5 81.4 21 3.8 38.9
15:05 1015 29.97 845 24.95 27.4 81.2 23 4.4 40
15:10 1015 29.97 845 24.95 26.9 80.3 23 4.1 39.3
15:15 1015 29.97 845 24.95 26.6 79.8 23 4.2 39.5
15:20 1015 29.97 845 24.95 27.1 80.8 22 3.8 38.8
15:25 1015 29.97 845 24.95 28 82.3 21 4 39.2
15:30 1015 29.97 845 24.95 28.2 82.7 22 4.7 40.5
15:35 1015 29.97 845 24.95 28.4 83 21 4.3 39.8
15:40 1015 29.97 845 24.95 27.6 81.6 23 4.8 40.7
15:45 1015 29.97 845 24.95 27.2 80.9 22 4 39.1
15:50 1016 30 845 24.95 26.8 80.3 22 3.9 39
15:55 1016 30 845 24.95 27.4 81.3 22 4.1 39.4
16:00 1015 29.97 845 24.95 27.8 82 22 4.2 39.6
16:05 1015 29.97 845 24.95 27.3 81.1 23 4.9 40.8
16:10 1015 29.97 845 24.95 26.8 80.2 23 4.2 39.6
16:15 1015 29.97 845 24.95 26.1 79.1 24 4.2 39.6
16:20 1015 29.97 844 24.92 26.3 79.4 23 3.7 38.6
16:25 1015 29.97 844 24.92 27.3 81.1 22 3.9 38.9
16:30 1015 29.97 844 24.92 27.7 81.8 23 4.8 40.6
16:35 1015 29.97 844 24.92 27.5 81.4 21 3.8 38.8
16:40 1015 29.97 844 24.92 27.6 81.7 21 3.9 39.1
16:45 1015 29.97 844 24.92 27.7 81.9 21 3.9 39
16:50 1015 29.97 844 24.92 27.1 80.8 21 3.3 37.9
16:55 1015 29.97 844 24.92 26.7 80 22 3.5 38.3
17:00 1015 29.97 844 24.92 26.4 79.5 22 3.2 37.7
17:05 1015 29.97 844 24.92 26.7 80.1 21 2.9 37.3
17:10 1015 29.97 844 24.92 26.9 80.3 21 3.2 37.8
17:15 1015 29.97 844 24.92 26.7 80 22 3.4 38.1
17:20 1015 29.97 844 24.92 27 80.6 21 3.2 37.8
17:25 1015 29.97 845 24.95 26.7 80 22 3.5 38.3
17:30 1016 30 845 24.95 26.5 79.8 22 3.5 38.4
17:35 1016 30 845 24.95 26.4 79.6 22 3.1 37.6
17:40 1016 30 845 24.95 26.3 79.3 23 3.7 38.7
17:45 1016 30 845 24.95 25.2 77.3 35 8.8 47.8
17:50 1016 30 845 24.95 23.5 74.4 34 7 44.6
17:55 1016 30 845 24.95 21.7 71.1 59 13.5 56.3
18:00 1016 30 845 24.95 19.9 67.8 58 11.5 52.6
18:05 1016 30 845 24.95 19.9 67.9 57 11.2 52.2
18:10 1016 30 845 24.95 20.1 68.2 56 11.2 52.2
18:15 1016 30 845 24.95 20.5 69 59 12.5 54.5
18:20 1016 30 845 24.95 20.4 68.7 58 12 53.7
18:25 1016 30 845 24.95 20.4 68.8 57 11.7 53.1
18:30 1016 30 845 24.95 20.7 69.2 57 11.9 53.4
18:35 1016 30 846 24.98 20.7 69.3 59 12.5 54.5
18:40 1016 30 846 24.98 20.8 69.5 57 12 53.6
18:45 1016 30 846 24.98 20.5 68.9 59 12.3 54.1
18:50 1016 30 846 24.98 20.5 68.9 53 10.8 51.4
18:55 1016 30 845 24.95 20.7 69.3 54 11.3 52.3
19:00 1016 30 846 24.98 20.6 69.1 56 11.6 52.9
19:05 1017 30.03 846 24.98 20.4 68.7 52 10.4 50.8
19:10 1017 30.03 846 24.98 20.4 68.8 51 10.1 50.1
19:15 1017 30.03 846 24.98 20.6 69.1 55 11.3 52.4
19:20 1017 30.03 846 24.98 20.5 68.9 58 12.2 53.9
19:25 1017 30.03 846 24.98 19.3 66.8 54 9.9 49.8
19:30 1017 30.03 846 24.98 18.8 65.9 58 10.4 50.8
19:35 1017 30.03 846 24.98 18.7 65.7 56 10 50
19:40 1017 30.03 846 24.98 19.6 67.2 56 10.6 51.1
19:45 1017 30.03 846 24.98 19.7 67.4 65 13.1 55.6
19:50 1017 30.03 846 24.98 19.3 66.7 66 12.9 55.2
19:55 1017 30.03 846 24.98 19.1 66.5 68 13.2 55.8
20:00 1017 30.03 847 25.01 18.8 65.8 66 12.3 54.1
20:05 1017 30.03 847 25.01 18.1 64.6 66 11.6 53
20:10 1017 30.03 846 24.98 18 64.5 62 10.8 51.5
20:15 1017 30.03 846 24.98 18.3 65 62 11.1 51.9
20:20 1017 30.03 846 24.98 18.1 64.5 72 13.1 55.5
20:25 1017 30.03 846 24.98 17.6 63.6 73 12.8 55.1
20:30 1017 30.03 847 25.01 17.7 63.8 71 12.4 54.4
20:35 1018 30.06 847 25.01 17.6 63.6 68 11.8 53.2
20:40 1017 30.03 847 25.01 17.7 63.9 68 11.9 53.3
20:45 1017 30.03 847 25.01 17.6 63.7 71 12.4 54.3
20:50 1017 30.03 847 25.01 17.5 63.6 70 12.1 53.8
20:55 1018 30.06 847 25.01 17.2 63 70 11.7 53.1
21:00 1018 30.06 847 25.01 17.3 63.1 69 11.6 52.9
21:05 1018 30.06 847 25.01 17.3 63.1 69 11.6 52.8
21:10 1018 30.06 847 25.01 17.3 63.1 70 11.7 53.1
21:15 1018 30.06 847 25.01 17.4 63.2 70 11.8 53.3
21:20 1017 30.03 847 25.01 17.3 63.1 65 10.6 51.2
21:25 1017 30.03 847 25.01 17.4 63.3 64 10.5 50.9
21:30 1018 30.06 847 25.01 17.4 63.3 63 10.5 50.8
21:35 1018 30.06 847 25.01 17.4 63.2 64 10.6 51.2
21:40 1018 30.06 847 25.01 17.2 63 65 10.7 51.3
21:45 1018 30.06 847 25.01 17 62.6 63 10.1 50.1
21:50 1018 30.06 847 25.01 17.1 62.9 62 9.8 49.7
21:55 1018 30.06 847 25.01 17.4 63.4 60 9.6 49.3
22:00 1018 30.06 847 25.01 17.6 63.6 58 9.3 48.8
22:05 1018 30.06 847 25.01 17.7 63.9 57 9.2 48.6
22:10 1018 30.06 847 25.01 17.7 63.9 58 9.4 49
22:15 1018 30.06 848 25.04 17.3 63.2 61 9.8 49.6
22:20 1018 30.06 848 25.04 16.9 62.5 64 10.1 50.1
22:25 1018 30.06 848 25.04 16.6 61.8 63 9.6 49.3
22:30 1019 30.09 848 25.04 16.4 61.5 65 9.9 49.7
22:35 1019 30.09 848 25.04 16.3 61.3 63 9.4 48.9
22:40 1019 30.09 848 25.04 16.3 61.4 61 8.8 47.9
22:45 1019 30.09 848 25.04 16.7 62.1 58 8.6 47.5
22:50 1019 30.09 848 25.04 16.8 62.3 61 9.2 48.6
22:55 1019 30.09 848 25.04 16.6 61.9 61 9 48.2
23:00 1019 30.09 848 25.04 16.5 61.7 65 10 50
23:05 1019 30.09 848 25.04 16.3 61.3 64 9.5 49.1
23:10 1019 30.09 848 25.04 16.2 61.2 64 9.6 49.2
23:15 1019 30.09 848 25.04 16.2 61.1 64 9.4 48.9
23:20 1019 30.09 848 25.04 16.1 60.9 64 9.4 48.8
23:25 1019 30.09 848 25.04 16 60.8 63 9.1 48.4
23:30 1019 30.09 848 25.04 16 60.8 63 9 48.2
23:35 1019 30.09 848 25.04 16 60.8 63 9.1 48.4
23:40 1019 30.09 848 25.04 16.2 61.1 62 9 48.3
23:45 1019 30.09 848 25.04 16.2 61.1 58 7.9 46.3
23:50 1019 30.09 848 25.04 16.7 62 55 7.8 46.1
23:55 1019 30.09 848 25.04 17.2 62.9 54 7.8 46
24:00 1019 30.09 848 25.04 17.2 62.9 56 8.5 47.3